M/V Gs980 — WTK9405 — position and weather

sailwx.info

Track history (hours):
 
Tides and Currents Weather Stations Pressure Air Temp Water Temp Dewpoint Dewpoint Depression Visibility Wind Speed Wind Dir Waves Ship Positions

M/V Gs980

Owner: ERGON MARINE AND INDUSTRIAL SUPPLY, VICKSBURG, MS. More information available from US FCC via Universal Licensing System and Coast Guard Vessel Documentation Center.

Last reported at 2017-Jun-28 08:30 UTC. Time now 2017-Jun-28 08:44 UTC.
Position N 32°22' W 090°53'.

Length 16 m.

Type: Towing. MMSI: 367099640.

Date/timePositionNaut miles runAvg speedWind from/ knotsBaromVisibWave heightAir tempDewpointWater temp
2017-Jun-28 08:30N 32°22' W 090°53'0 0.0
2017-Jun-28 08:00N 32°22' W 090°53'1 2.1
2017-Jun-28 07:30N 32°23' W 090°54'1 2.0
2017-Jun-28 07:00N 32°23' W 090°55'2 3.8
2017-Jun-28 06:30N 32°22' W 090°53'0 0.6
2017-Jun-28 06:00N 32°23' W 090°52'1 2.2
2017-Jun-28 05:30N 32°21' W 090°53'2 3.6
2017-Jun-28 05:00N 32°23' W 090°54'0 1.0
2017-Jun-28 04:30N 32°23' W 090°53'3 5.6
2017-Jun-28 04:00N 32°20' W 090°54'2 4.7
2017-Jun-28 03:30N 32°18' W 090°55'1 1.5
2017-Jun-28 03:00N 32°18' W 090°55'0 0.2
2017-Jun-28 02:30N 32°18' W 090°55'0 0.1
2017-Jun-28 02:00N 32°18' W 090°55'0 0.1
2017-Jun-28 01:30N 32°18' W 090°55'3 5.9
2017-Jun-28 01:00N 32°20' W 090°54'1 2.6
2017-Jun-28 00:30N 32°22' W 090°53'0 0.0
2017-Jun-28 00:00N 32°22' W 090°53'1 1.2
2017-Jun-27 23:30N 32°21' W 090°53'2 0.1
2017-Jun-27 11:17N 32°20' W 090°54'0 0.0
2017-Jun-27 11:00N 32°20' W 090°54'0 0.0
2017-Jun-27 10:31N 32°20' W 090°54'0 0.0
2017-Jun-27 10:01N 32°20' W 090°54'0 0.0
2017-Jun-27 09:30N 32°20' W 090°54'0 0.0
2017-Jun-27 09:01N 32°20' W 090°54'0 0.0
2017-Jun-27 08:30N 32°20' W 090°54'0 0.0
2017-Jun-27 08:01N 32°20' W 090°54'0 0.0
2017-Jun-27 07:30N 32°20' W 090°54'0 0.0
2017-Jun-27 07:01N 32°20' W 090°54'0 0.0
2017-Jun-27 06:31N 32°20' W 090°54'0 0.0
2017-Jun-27 06:00N 32°20' W 090°54'0 0.0
2017-Jun-27 05:31N 32°20' W 090°54'3 5.7
2017-Jun-27 05:01N 32°22' W 090°53'2 4.1
2017-Jun-27 04:30N 32°24' W 090°55'1 2.9
2017-Jun-27 04:00N 32°23' W 090°54'1 1.3
2017-Jun-27 03:31N 32°23' W 090°54'0 0.6
2017-Jun-27 03:00N 32°23' W 090°54'0 0.0
2017-Jun-27 02:30N 32°23' W 090°54'0 0.5
2017-Jun-27 02:01N 32°23' W 090°54'1 2.3
2017-Jun-27 01:30N 32°23' W 090°52'1 1.5
2017-Jun-27 01:01N 32°23' W 090°53'0 0.4
2017-Jun-27 00:30N 32°23' W 090°53'2 4.8
2017-Jun-27 00:01N 32°21' W 090°53'1 2.6
2017-Jun-26 23:30N 32°20' W 090°54'0 0.0
2017-Jun-26 23:01N 32°20' W 090°54'2 4.6
2017-Jun-26 22:30N 32°22' W 090°53'2 3.1
2017-Jun-26 22:01N 32°23' W 090°53'0 0.0
2017-Jun-26 21:31N 32°23' W 090°53'0 0.0
2017-Jun-26 21:00N 32°23' W 090°53'0 0.0
2017-Jun-26 20:30N 32°23' W 090°53'0 0.3
2017-Jun-26 20:01N 32°23' W 090°53'0 0.2
2017-Jun-26 19:31N 32°23' W 090°53'2 3.1
2017-Jun-26 19:01N 32°22' W 090°53'3 5.2
2017-Jun-26 18:30N 32°24' W 090°55'1 2.9
2017-Jun-26 18:00N 32°23' W 090°54'1 1.5
2017-Jun-26 17:31N 32°23' W 090°53'0 0.0
2017-Jun-26 17:01N 32°23' W 090°53'0 0.0
2017-Jun-26 16:31N 32°23' W 090°53'0 0.0
2017-Jun-26 16:01N 32°23' W 090°53'0 0.0
2017-Jun-26 15:30N 32°23' W 090°53'1 1.7
2017-Jun-26 15:01N 32°23' W 090°54'1 2.2
2017-Jun-26 14:30N 32°24' W 090°55'1 1.5
2017-Jun-26 13:31N 32°23' W 090°54'2 3.7
2017-Jun-26 13:00N 32°21' W 090°53'2 4.5
2017-Jun-26 12:30N 32°19' W 090°55'1 1.1
2017-Jun-26 12:00N 32°18' W 090°55'0 0.0
2017-Jun-26 11:30N 32°18' W 090°55'0 0.0
2017-Jun-26 11:00N 32°18' W 090°55'0 0.1
2017-Jun-26 10:31N 32°18' W 090°55'0 0.1
2017-Jun-26 10:00N 32°18' W 090°55'0 0.1
2017-Jun-26 09:30N 32°18' W 090°55'0 0.0
2017-Jun-26 09:01N 32°18' W 090°55'1 1.6
2017-Jun-26 08:30N 32°19' W 090°54'2 4.9
2017-Jun-26 08:01N 32°21' W 090°53'2 3.6
2017-Jun-26 07:30N 32°23' W 090°52'0 0.4
2017-Jun-26 07:00N 32°23' W 090°53'1 1.1
2017-Jun-26 06:31N 32°22' W 090°53'0 0.0
2017-Jun-26 06:01N 32°22' W 090°53'0 0.7
2017-Jun-26 05:30N 32°22' W 090°53'2 3.0
2017-Jun-26 05:00N 32°23' W 090°54'1 1.4
2017-Jun-26 04:31N 32°23' W 090°53'0 0.0
2017-Jun-26 04:00N 32°23' W 090°53'0 0.0
2017-Jun-26 03:30N 32°23' W 090°53'0 0.0
2017-Jun-26 03:01N 32°23' W 090°53'0 0.0
2017-Jun-26 02:31N 32°23' W 090°53'0 0.0
2017-Jun-26 02:00N 32°23' W 090°53'0 0.0
2017-Jun-26 01:30N 32°23' W 090°53'1 2.1
2017-Jun-26 01:00N 32°22' W 090°53'2 4.6
2017-Jun-26 00:30N 32°24' W 090°55'2 4.1
2017-Jun-26 00:01N 32°22' W 090°53'2 4.2
2017-Jun-25 23:30N 32°20' W 090°54'1 1.4
2017-Jun-25 23:00N 32°20' W 090°54'0 0.0
2017-Jun-25 22:30N 32°20' W 090°54'1 2.0
2017-Jun-25 22:00N 32°21' W 090°54'3 5.2
2017-Jun-25 21:30N 32°23' W 090°53'0 0.2
2017-Jun-25 21:01N 32°23' W 090°53'0 0.0
2017-Jun-25 20:30N 32°23' W 090°53'0 0.2
2017-Jun-25 20:00N 32°23' W 090°53'0 0.0
2017-Jun-25 19:31N 32°23' W 090°53'0 0.0
2017-Jun-25 19:00N 32°23' W 090°53'0 0.0
2017-Jun-25 18:30N 32°23' W 090°53'0 0.1
2017-Jun-25 18:00N 32°23' W 090°53'1 1.9
2017-Jun-25 17:30N 32°23' W 090°52'2 3.4
2017-Jun-25 17:00N 32°21' W 090°53'3 5.6
2017-Jun-25 16:30N 32°19' W 090°55'1 1.4
2017-Jun-25 16:00N 32°18' W 090°55'3 5.7
2017-Jun-25 15:30N 32°20' W 090°54'2 3.9
2017-Jun-25 15:01N 32°22' W 090°53'2 3.3
2017-Jun-25 14:31N 32°23' W 090°55'1 0.9
2017-Jun-25 13:31N 32°23' W 090°54'1 1.7
2017-Jun-25 13:01N 32°23' W 090°53'2 3.6
2017-Jun-25 12:30N 32°21' W 090°53'2 3.3
2017-Jun-25 12:00N 32°20' W 090°54'0 0.0
2017-Jun-25 11:30N 32°20' W 090°54'0 0.0
2017-Jun-25 11:01N 32°20' W 090°54'2 3.7
2017-Jun-25 10:30N 32°21' W 090°53'0 0.6
2017-Jun-25 10:01N 32°22' W 090°53'0 0.0
2017-Jun-25 09:31N 32°22' W 090°53'0 0.0
2017-Jun-25 09:01N 32°22' W 090°53'0 0.0
2017-Jun-25 08:30N 32°22' W 090°53'0 0.0
2017-Jun-25 08:01N 32°22' W 090°53'0 0.0
2017-Jun-25 07:31N 32°22' W 090°53'0 0.0
2017-Jun-25 07:01N 32°22' W 090°53'0 0.0
2017-Jun-25 06:30N 32°22' W 090°53'0 0.2
2017-Jun-25 06:00N 32°21' W 090°53'3 5.3
2017-Jun-25 05:31N 32°19' W 090°54'1 2.1
2017-Jun-25 05:00N 32°18' W 090°55'0 0.2
2017-Jun-25 04:31N 32°18' W 090°55'4 7.7
2017-Jun-25 04:00N 32°22' W 090°53'2 3.1
2017-Jun-25 03:31N 32°23' W 090°53'0 0.0
2017-Jun-25 03:00N 32°23' W 090°53'0 0.0
2017-Jun-25 02:30N 32°23' W 090°53'0 0.0
2017-Jun-25 02:00N 32°23' W 090°53'0 0.1
2017-Jun-25 01:31N 32°23' W 090°53'2 4.1
2017-Jun-25 01:00N 32°21' W 090°53'2 3.2
2017-Jun-25 00:30N 32°20' W 090°54'2 3.6
2017-Jun-25 00:01N 32°18' W 090°55'2 3.2
2017-Jun-24 23:31N 32°19' W 090°54'3 6.2
2017-Jun-24 23:01N 32°22' W 090°54'1 1.7
2017-Jun-24 22:30N 32°23' W 090°54'1 2.9
2017-Jun-24 22:00N 32°23' W 090°53'1 2.2
2017-Jun-24 21:31N 32°23' W 090°54'1 1.3
2017-Jun-24 21:00N 32°23' W 090°53'1 2.1
2017-Jun-24 20:30N 32°22' W 090°53'1 2.1
2017-Jun-24 20:00N 32°23' W 090°53'0 0.0
2017-Jun-24 19:31N 32°23' W 090°53'0 0.0
2017-Jun-24 19:00N 32°23' W 090°53'0 0.0
2017-Jun-24 18:31N 32°23' W 090°53'0 0.0
2017-Jun-24 18:00N 32°23' W 090°53'0 0.0
2017-Jun-24 17:31N 32°23' W 090°53'0 0.0
2017-Jun-24 17:00N 32°23' W 090°53'0 0.0
2017-Jun-24 16:30N 32°23' W 090°53'0 0.0
2017-Jun-24 16:00N 32°23' W 090°53'0 0.0
2017-Jun-24 15:30N 32°23' W 090°53'0 0.0
2017-Jun-24 15:00N 32°23' W 090°53'0 0.0
2017-Jun-24 14:01N 32°23' W 090°53'1 1.8
2017-Jun-24 13:30N 32°23' W 090°54'0 0.1
2017-Jun-24 13:01N 32°23' W 090°54'2 3.4
2017-Jun-24 12:30N 32°21' W 090°53'2 4.0
2017-Jun-24 12:01N 32°20' W 090°54'0 0.0
2017-Jun-24 11:30N 32°20' W 090°54'0 0.0
2017-Jun-24 11:00N 32°20' W 090°54'1 2.7
2017-Jun-24 10:31N 32°21' W 090°53'2 4.7
2017-Jun-24 10:00N 32°23' W 090°53'0 0.0
2017-Jun-24 09:31N 32°23' W 090°53'0 0.0
2017-Jun-24 09:01N 32°23' W 090°53'0 0.0
2017-Jun-24 08:30N 32°23' W 090°53'0 0.0
2017-Jun-24 08:00N 32°23' W 090°53'0 0.8
2017-Jun-24 07:30N 32°23' W 090°53'1 2.8
2017-Jun-24 07:01N 32°22' W 090°53'2 3.2
2017-Jun-24 06:30N 32°20' W 090°54'3 6.9
2017-Jun-24 06:00N 32°21' W 090°58'0 0.0
2017-Jun-24 05:30N 32°21' W 090°58'1 1.7
2017-Jun-24 05:00N 32°21' W 090°57'2 4.4
2017-Jun-24 04:30N 32°20' W 090°54'1 1.9
2017-Jun-24 04:00N 32°20' W 090°54'2 4.0
2017-Jun-24 03:31N 32°18' W 090°55'0 0.0
2017-Jun-24 03:01N 32°18' W 090°55'0 0.0
2017-Jun-24 02:31N 32°18' W 090°55'0 0.0
2017-Jun-24 02:01N 32°18' W 090°55'1 2.9
2017-Jun-24 01:31N 32°19' W 090°54'4 8.1
2017-Jun-24 01:00N 32°23' W 090°53'1 1.8
2017-Jun-24 00:31N 32°23' W 090°54'1 2.3
2017-Jun-24 00:00N 32°22' W 090°53'1 2.2
2017-Jun-23 23:30N 32°21' W 090°53'2 3.6
2017-Jun-23 23:01N 32°20' W 090°54'0 0.0
2017-Jun-23 22:31N 32°20' W 090°54'0 0.0
2017-Jun-23 15:28N 32°20' W 090°54'0 0.0
2017-Jun-23 14:54N 32°20' W 090°54'2 2.4
2017-Jun-23 14:00N 32°22' W 090°53'3 5.1
2017-Jun-23 13:30N 32°24' W 090°55'2 4.6
2017-Jun-23 13:00N 32°22' W 090°53'1 3.0
2017-Jun-23 12:30N 32°23' W 090°54'1 3.0
2017-Jun-23 12:00N 32°22' W 090°53'0 1.0
2017-Jun-23 11:30N 32°22' W 090°53'2 4.9
2017-Jun-23 11:00N 32°20' W 090°54'0 0.0
2017-Jun-23 10:30N 32°20' W 090°54'1 2.6
2017-Jun-23 10:00N 32°19' W 090°55'1 1.0
2017-Jun-23 09:30N 32°18' W 090°55'0 0.2
2017-Jun-23 09:00N 32°18' W 090°55'4 7.5
2017-Jun-23 08:30N 32°22' W 090°53'0 0.1
2017-Jun-23 08:00N 32°22' W 090°53'0 0.0
2017-Jun-23 07:30N 32°22' W 090°53'0 0.0
2017-Jun-23 07:00N 32°22' W 090°53'0 0.0
2017-Jun-23 06:30N 32°22' W 090°53'0 0.0
2017-Jun-23 06:00N 32°22' W 090°53'0 0.0
2017-Jun-23 05:30N 32°22' W 090°53'0 0.0
2017-Jun-23 05:00N 32°22' W 090°53'0 0.0
2017-Jun-23 04:30N 32°22' W 090°53'0 0.0
2017-Jun-23 04:00N 32°22' W 090°53'0 0.0
2017-Jun-23 03:30N 32°22' W 090°53'0 0.0
2017-Jun-23 03:00N 32°22' W 090°53'0 0.0
2017-Jun-23 02:30N 32°22' W 090°53'1 2.2
2017-Jun-23 02:00N 32°23' W 090°54'2 3.2
2017-Jun-23 01:30N 32°24' W 090°55'2 4.6
2017-Jun-23 01:00N 32°22' W 090°53'3 5.5
2017-Jun-23 00:30N 32°20' W 090°54'2 4.6
2017-Jun-23 00:00N 32°18' W 090°56'3 5.0
2017-Jun-22 23:30N 32°16' W 090°58'1 1.3
2017-Jun-22 23:00N 32°17' W 090°57'4 8.4
2017-Jun-22 22:30N 32°20' W 090°54'0 0.9
2017-Jun-22 22:00N 32°20' W 090°54'2 4.9
2017-Jun-22 21:30N 32°22' W 090°53'1 1.7
2017-Jun-22 21:00N 32°22' W 090°53'0 0.0
2017-Jun-22 20:30N 32°22' W 090°53'0 0.0
2017-Jun-22 20:00N 32°22' W 090°53'0 0.4
2017-Jun-22 19:30N 32°22' W 090°53'1 1.8
2017-Jun-22 19:00N 32°22' W 090°53'0 0.0
2017-Jun-22 18:30N 32°22' W 090°53'0 0.0
2017-Jun-22 18:00N 32°22' W 090°53'0 0.1
2017-Jun-22 17:30N 32°23' W 090°53'0 0.1
2017-Jun-22 17:00N 32°22' W 090°53'0 0.9
2017-Jun-22 16:30N 32°22' W 090°53'1 1.6
2017-Jun-22 16:00N 32°23' W 090°53'2 3.0
2017-Jun-22 15:30N 32°22' W 090°53'2 3.2
2017-Jun-22 15:00N 32°23' W 090°53'0 0.0
2017-Jun-22 14:30N 32°23' W 090°53'0 0.0
2017-Jun-22 13:30N 32°23' W 090°53'1 1.5
2017-Jun-22 13:00N 32°22' W 090°53'0 0.6
2017-Jun-22 12:30N 32°22' W 090°53'1 1.3
2017-Jun-22 12:00N 32°22' W 090°53'0 0.4
2017-Jun-22 11:30N 32°21' W 090°53'2 4.0
2017-Jun-22 11:00N 32°20' W 090°54'0 0.0
2017-Jun-22 10:30N 32°20' W 090°54'3 5.5
2017-Jun-22 10:00N 32°22' W 090°53'1 1.3
2017-Jun-22 09:30N 32°22' W 090°53'0 0.0
2017-Jun-22 09:00N 32°22' W 090°53'0 0.0
2017-Jun-22 08:30N 32°22' W 090°53'0 0.0
2017-Jun-22 08:00N 32°22' W 090°53'0 0.0
2017-Jun-22 07:30N 32°22' W 090°53'0 0.0
2017-Jun-22 07:00N 32°22' W 090°53'0 0.0
2017-Jun-22 06:30N 32°22' W 090°53'0 0.0
2017-Jun-22 06:00N 32°22' W 090°53'0 0.0
2017-Jun-22 05:30N 32°22' W 090°53'2 3.8
2017-Jun-22 05:00N 32°21' W 090°54'3 5.1
2017-Jun-22 04:30N 32°18' W 090°55'0 0.7
2017-Jun-22 04:00N 32°18' W 090°55'2 3.6
2017-Jun-22 03:30N 32°20' W 090°54'2 4.8
2017-Jun-22 03:00N 32°22' W 090°53'3 5.2
2017-Jun-22 02:30N 32°24' W 090°55'0 0.0
2017-Jun-22 02:00N 32°24' W 090°55'0 0.6
2017-Jun-22 01:30N 32°23' W 090°55'1 1.6
2017-Jun-22 01:00N 32°23' W 090°54'1 1.7
2017-Jun-22 00:30N 32°23' W 090°53'0 0.1
2017-Jun-22 00:00N 32°23' W 090°53'2 4.1
2017-Jun-21 23:30N 32°21' W 090°53'2 3.4
2017-Jun-21 23:00N 32°20' W 090°54'0 0.0
2017-Jun-21 22:30N 32°20' W 090°54'2 3.7
2017-Jun-21 22:00N 32°21' W 090°53'2 3.1
2017-Jun-21 21:30N 32°23' W 090°53'1 1.3
2017-Jun-21 21:00N 32°23' W 090°53'0 0.0
2017-Jun-21 20:30N 32°23' W 090°53'0 0.0
2017-Jun-21 20:00N 32°23' W 090°53'0 0.4
2017-Jun-21 19:30N 32°23' W 090°53'1 2.1
2017-Jun-21 19:00N 32°22' W 090°53'1 1.3
2017-Jun-21 18:30N 32°22' W 090°53'2 3.6
2017-Jun-21 18:00N 32°23' W 090°54'0 0.3
2017-Jun-21 17:30N 32°23' W 090°54'1 2.9
2017-Jun-21 17:00N 32°22' W 090°53'0 0.8
2017-Jun-21 16:30N 32°22' W 090°53'0 0.0
2017-Jun-21 16:00N 32°22' W 090°53'0 1.0
2017-Jun-21 15:30N 32°22' W 090°53'1 2.6
2017-Jun-21 15:00N 32°23' W 090°54'1 1.1
2017-Jun-21 14:00N 32°22' W 090°53'0 0.0
2017-Jun-21 13:30N 32°22' W 090°53'0 0.3
2017-Jun-21 13:00N 32°22' W 090°53'0 0.0
2017-Jun-21 12:30N 32°22' W 090°53'2 4.0
2017-Jun-21 12:00N 32°20' W 090°54'1 1.8
2017-Jun-21 11:30N 32°20' W 090°54'0 0.0
2017-Jun-21 11:00N 32°20' W 090°54'0 0.0
2017-Jun-21 10:30N 32°20' W 090°54'3 5.9
2017-Jun-21 10:00N 32°22' W 090°53'1 2.1
2017-Jun-21 09:30N 32°23' W 090°53'0 0.0
2017-Jun-21 09:00N 32°23' W 090°53'0 0.0
2017-Jun-21 08:30N 32°23' W 090°53'0 0.0
2017-Jun-21 08:00N 32°23' W 090°53'0 0.0
2017-Jun-21 07:30N 32°23' W 090°53'2 3.3
2017-Jun-21 07:00N 32°22' W 090°53'1 1.8
2017-Jun-21 06:30N 32°21' W 090°53'0 0.0
2017-Jun-21 06:00N 32°21' W 090°53'0 0.0
2017-Jun-21 05:30N 32°21' W 090°53'0 0.0
2017-Jun-21 05:00N 32°21' W 090°53'0 0.0
2017-Jun-21 04:30N 32°21' W 090°53'0 0.0
2017-Jun-21 04:00N 32°21' W 090°53'0 0.0
2017-Jun-21 03:30N 32°21' W 090°53'0 0.0
2017-Jun-21 03:00N 32°21' W 090°53'0 0.8
2017-Jun-21 02:30N 32°21' W 090°53'2 3.5
2017-Jun-21 02:00N 32°23' W 090°53'1 2.2
2017-Jun-21 01:30N 32°23' W 090°54'0 0.3
2017-Jun-21 01:00N 32°23' W 090°54'2 3.2
2017-Jun-21 00:30N 32°22' W 090°53'3 5.2
2017-Jun-21 00:00N 32°20' W 090°54'2 4.2
2017-Jun-20 23:30N 32°22' W 090°53'0 0.0
2017-Jun-20 23:00N 32°22' W 090°53'1 2.9
2017-Jun-20 22:30N 32°23' W 090°53'1 1.8
2017-Jun-20 22:00N 32°23' W 090°54'1 1.7
2017-Jun-20 21:30N 32°23' W 090°53'0 0.6
2017-Jun-20 21:00N 32°23' W 090°53'0 0.0
2017-Jun-20 20:30N 32°23' W 090°53'0 0.0
2017-Jun-20 20:00N 32°23' W 090°53'1 1.2
2017-Jun-20 19:30N 32°23' W 090°53'2 3.1
2017-Jun-20 19:00N 32°21' W 090°53'1 2.7
2017-Jun-20 18:30N 32°20' W 090°54'3 5.4
2017-Jun-20 18:00N 32°21' W 090°57'0 0.2
2017-Jun-20 17:30N 32°21' W 090°57'0 0.2
2017-Jun-20 17:00N 32°21' W 090°57'0 0.8
2017-Jun-20 16:30N 32°21' W 090°56'2 4.6
2017-Jun-20 16:00N 32°20' W 090°54'2 4.5
2017-Jun-20 15:30N 32°22' W 090°53'1 1.3
2017-Jun-20 15:00N 32°23' W 090°54'1 1.0
2017-Jun-20 14:00N 32°23' W 090°55'1 1.1
2017-Jun-20 13:31N 32°24' W 090°55'1 2.1
2017-Jun-20 13:00N 32°23' W 090°54'1 2.0
2017-Jun-20 12:30N 32°22' W 090°53'2 3.7
2017-Jun-20 12:00N 32°21' W 090°54'1 2.0
2017-Jun-20 11:30N 32°20' W 090°54'0 0.0
2017-Jun-20 11:00N 32°20' W 090°54'0 0.0
2017-Jun-20 10:30N 32°20' W 090°54'3 5.7
2017-Jun-20 10:00N 32°22' W 090°53'0 0.0
2017-Jun-20 09:30N 32°22' W 090°53'0 0.0
2017-Jun-20 09:00N 32°22' W 090°53'0 0.0
2017-Jun-20 08:30N 32°22' W 090°53'0 0.0
2017-Jun-20 08:00N 32°22' W 090°53'0 0.1
2017-Jun-20 07:30N 32°22' W 090°53'0 0.0
2017-Jun-20 07:00N 32°22' W 090°53'0 0.0
2017-Jun-20 06:30N 32°22' W 090°53'0 0.1
2017-Jun-20 06:00N 32°22' W 090°53'0 0.1
2017-Jun-20 05:30N 32°22' W 090°53'1 1.8
2017-Jun-20 05:00N 32°22' W 090°53'1 1.5
2017-Jun-20 04:30N 32°22' W 090°53'0 0.5
2017-Jun-20 04:00N 32°22' W 090°53'1 2.9
2017-Jun-20 03:30N 32°23' W 090°54'1 1.0
2017-Jun-20 03:00N 32°23' W 090°53'0 0.2
2017-Jun-20 02:30N 32°23' W 090°53'1 1.3
2017-Jun-20 02:00N 32°23' W 090°53'0 0.5
2017-Jun-20 01:30N 32°22' W 090°53'1 1.2
2017-Jun-20 01:00N 32°23' W 090°54'1 1.6
2017-Jun-20 00:30N 32°23' W 090°55'1 2.1
2017-Jun-20 00:00N 32°23' W 090°54'2 3.9
2017-Jun-19 23:30N 32°21' W 090°54'1 2.1
2017-Jun-19 23:00N 32°20' W 090°54'0 0.0
2017-Jun-19 22:30N 32°20' W 090°54'3 5.4
2017-Jun-19 22:00N 32°22' W 090°53'1 2.6
2017-Jun-19 21:30N 32°23' W 090°53'0 0.0
2017-Jun-19 21:00N 32°23' W 090°53'0 0.0
2017-Jun-19 20:30N 32°23' W 090°53'0 0.0
2017-Jun-19 20:00N 32°23' W 090°53'0 0.1
2017-Jun-19 19:30N 32°23' W 090°53'1 1.4
2017-Jun-19 19:00N 32°23' W 090°53'1 1.4
2017-Jun-19 18:30N 32°23' W 090°54'0 0.9
2017-Jun-19 18:00N 32°23' W 090°53'1 1.5
2017-Jun-19 17:30N 32°22' W 090°53'1 1.4
2017-Jun-19 17:00N 32°23' W 090°53'0 0.7
2017-Jun-19 16:30N 32°23' W 090°54'2 3.5
2017-Jun-19 16:00N 32°22' W 090°53'3 5.1
2017-Jun-19 15:30N 32°19' W 090°54'1 2.7
2017-Jun-19 15:00N 32°18' W 090°55'0 0.1
2017-Jun-19 14:00N 32°18' W 090°55'3 5.8
2017-Jun-19 13:30N 32°21' W 090°54'1 2.2
2017-Jun-19 13:00N 32°22' W 090°53'0 0.1
2017-Jun-19 12:30N 32°22' W 090°53'0 1.0
2017-Jun-19 12:00N 32°21' W 090°53'2 3.2
2017-Jun-19 11:30N 32°20' W 090°54'0 0.0
2017-Jun-19 11:00N 32°20' W 090°54'0 0.0
2017-Jun-19 10:30N 32°20' W 090°54'2 4.3
2017-Jun-19 10:00N 32°22' W 090°53'0 0.0
2017-Jun-19 09:30N 32°22' W 090°53'0 0.0
2017-Jun-19 09:00N 32°22' W 090°53'0 0.0
2017-Jun-19 08:30N 32°22' W 090°53'0 0.0
2017-Jun-19 08:00N 32°22' W 090°53'1 2.0
2017-Jun-19 07:30N 32°22' W 090°53'1 2.3
2017-Jun-19 07:00N 32°23' W 090°55'1 2.0
2017-Jun-19 06:30N 32°23' W 090°54'1 2.0
2017-Jun-19 06:00N 32°23' W 090°52'1 1.8
2017-Jun-19 05:30N 32°23' W 090°53'0 0.0
2017-Jun-19 05:00N 32°23' W 090°53'0 0.0
2017-Jun-19 04:30N 32°23' W 090°53'0 0.0
2017-Jun-19 04:00N 32°23' W 090°53'1 1.7
2017-Jun-19 03:30N 32°22' W 090°53'0 0.0
2017-Jun-19 03:00N 32°22' W 090°53'0 0.0
2017-Jun-19 02:30N 32°22' W 090°53'0 0.0
2017-Jun-19 02:00N 32°22' W 090°53'0 0.1
2017-Jun-19 01:30N 32°22' W 090°53'0 0.6
2017-Jun-19 01:00N 32°22' W 090°53'1 1.5
2017-Jun-19 00:30N 32°23' W 090°53'2 4.9
2017-Jun-19 00:00N 32°21' W 090°54'1 2.1
2017-Jun-18 23:30N 32°20' W 090°54'0 0.8
2017-Jun-18 23:00N 32°20' W 090°54'3 6.3
2017-Jun-18 22:30N 32°23' W 090°53'0 1.0
2017-Jun-18 22:00N 32°23' W 090°53'0 0.3
2017-Jun-18 21:30N 32°23' W 090°53'1 1.9
2017-Jun-18 21:00N 32°22' W 090°53'2 3.1
2017-Jun-18 20:30N 32°20' W 090°54'0 0.0
2017-Jun-18 20:00N 32°20' W 090°54'1 1.4
2017-Jun-18 19:30N 32°21' W 090°53'2 4.3
2017-Jun-18 19:00N 32°23' W 090°53'0 0.0
2017-Jun-18 18:30N 32°23' W 090°53'0 0.0
2017-Jun-18 18:00N 32°23' W 090°53'0 0.0
2017-Jun-18 17:30N 32°23' W 090°53'0 0.0
2017-Jun-18 17:00N 32°23' W 090°53'0 0.0
2017-Jun-18 16:30N 32°23' W 090°53'0 0.0
2017-Jun-18 16:00N 32°23' W 090°53'0 0.0
2017-Jun-18 15:30N 32°23' W 090°53'0 0.0
2017-Jun-18 15:00N 32°23' W 090°53'0 0.0
2017-Jun-18 14:00N 32°23' W 090°53'0 0.0
2017-Jun-18 13:30N 32°23' W 090°53'1 1.5
2017-Jun-18 13:00N 32°22' W 090°53'2 3.1
2017-Jun-18 12:30N 32°21' W 090°53'1 2.8
2017-Jun-18 12:00N 32°20' W 090°54'0 0.0
2017-Jun-18 11:30N 32°20' W 090°54'0 0.0
2017-Jun-18 11:00N 32°20' W 090°54'0 0.0
2017-Jun-18 10:30N 32°20' W 090°54'0 0.0
2017-Jun-18 10:00N 32°20' W 090°54'3 5.6
2017-Jun-18 09:30N 32°22' W 090°53'1 1.9
2017-Jun-18 09:00N 32°23' W 090°53'  
Track history (hours):
 
Tides and Currents Weather Stations Pressure Air Temp Water Temp Dewpoint Dewpoint Depression Visibility Wind Speed Wind Dir Waves Ship Positions

M/V Gs980

Owner: ERGON MARINE AND INDUSTRIAL SUPPLY, VICKSBURG, MS. More information available from US FCC via Universal Licensing System and Coast Guard Vessel Documentation Center.

Last reported at 2017-Jun-28 08:30 UTC. Time now 2017-Jun-28 08:44 UTC.
Position N 32°22' W 090°53'.

Length 16 m.

Type: Towing. MMSI: 367099640.

Date/timePositionNaut miles runAvg speedWind from/ knotsBaromVisibWave heightAir tempDewpointWater temp
2017-Jun-28 08:30N 32°22' W 090°53'0 0.0
2017-Jun-28 08:00N 32°22' W 090°53'1 2.1
2017-Jun-28 07:30N 32°23' W 090°54'1 2.0
2017-Jun-28 07:00N 32°23' W 090°55'2 3.8
2017-Jun-28 06:30N 32°22' W 090°53'0 0.6
2017-Jun-28 06:00N 32°23' W 090°52'1 2.2
2017-Jun-28 05:30N 32°21' W 090°53'2 3.6
2017-Jun-28 05:00N 32°23' W 090°54'0 1.0
2017-Jun-28 04:30N 32°23' W 090°53'3 5.6
2017-Jun-28 04:00N 32°20' W 090°54'2 4.7
2017-Jun-28 03:30N 32°18' W 090°55'1 1.5
2017-Jun-28 03:00N 32°18' W 090°55'0 0.2
2017-Jun-28 02:30N 32°18' W 090°55'0 0.1
2017-Jun-28 02:00N 32°18' W 090°55'0 0.1
2017-Jun-28 01:30N 32°18' W 090°55'3 5.9
2017-Jun-28 01:00N 32°20' W 090°54'1 2.6
2017-Jun-28 00:30N 32°22' W 090°53'0 0.0
2017-Jun-28 00:00N 32°22' W 090°53'1 1.2
2017-Jun-27 23:30N 32°21' W 090°53'2 0.1
2017-Jun-27 11:17N 32°20' W 090°54'0 0.0
2017-Jun-27 11:00N 32°20' W 090°54'0 0.0
2017-Jun-27 10:31N 32°20' W 090°54'0 0.0
2017-Jun-27 10:01N 32°20' W 090°54'0 0.0
2017-Jun-27 09:30N 32°20' W 090°54'0 0.0
2017-Jun-27 09:01N 32°20' W 090°54'0 0.0
2017-Jun-27 08:30N 32°20' W 090°54'0 0.0
2017-Jun-27 08:01N 32°20' W 090°54'0 0.0
2017-Jun-27 07:30N 32°20' W 090°54'0 0.0
2017-Jun-27 07:01N 32°20' W 090°54'0 0.0
2017-Jun-27 06:31N 32°20' W 090°54'0 0.0
2017-Jun-27 06:00N 32°20' W 090°54'0 0.0
2017-Jun-27 05:31N 32°20' W 090°54'3 5.7
2017-Jun-27 05:01N 32°22' W 090°53'2 4.1
2017-Jun-27 04:30N 32°24' W 090°55'1 2.9
2017-Jun-27 04:00N 32°23' W 090°54'1 1.3
2017-Jun-27 03:31N 32°23' W 090°54'0 0.6
2017-Jun-27 03:00N 32°23' W 090°54'0 0.0
2017-Jun-27 02:30N 32°23' W 090°54'0 0.5
2017-Jun-27 02:01N 32°23' W 090°54'1 2.3
2017-Jun-27 01:30N 32°23' W 090°52'1 1.5
2017-Jun-27 01:01N 32°23' W 090°53'0 0.4
2017-Jun-27 00:30N 32°23' W 090°53'2 4.8
2017-Jun-27 00:01N 32°21' W 090°53'1 2.6
2017-Jun-26 23:30N 32°20' W 090°54'0 0.0
2017-Jun-26 23:01N 32°20' W 090°54'2 4.6
2017-Jun-26 22:30N 32°22' W 090°53'2 3.1
2017-Jun-26 22:01N 32°23' W 090°53'0 0.0
2017-Jun-26 21:31N 32°23' W 090°53'0 0.0
2017-Jun-26 21:00N 32°23' W 090°53'0 0.0
2017-Jun-26 20:30N 32°23' W 090°53'0 0.3
2017-Jun-26 20:01N 32°23' W 090°53'0 0.2
2017-Jun-26 19:31N 32°23' W 090°53'2 3.1
2017-Jun-26 19:01N 32°22' W 090°53'3 5.2
2017-Jun-26 18:30N 32°24' W 090°55'1 2.9
2017-Jun-26 18:00N 32°23' W 090°54'1 1.5
2017-Jun-26 17:31N 32°23' W 090°53'0 0.0
2017-Jun-26 17:01N 32°23' W 090°53'0 0.0
2017-Jun-26 16:31N 32°23' W 090°53'0 0.0
2017-Jun-26 16:01N 32°23' W 090°53'0 0.0
2017-Jun-26 15:30N 32°23' W 090°53'1 1.7
2017-Jun-26 15:01N 32°23' W 090°54'1 2.2
2017-Jun-26 14:30N 32°24' W 090°55'1 1.5
2017-Jun-26 13:31N 32°23' W 090°54'2 3.7
2017-Jun-26 13:00N 32°21' W 090°53'2 4.5
2017-Jun-26 12:30N 32°19' W 090°55'1 1.1
2017-Jun-26 12:00N 32°18' W 090°55'0 0.0
2017-Jun-26 11:30N 32°18' W 090°55'0 0.0
2017-Jun-26 11:00N 32°18' W 090°55'0 0.1
2017-Jun-26 10:31N 32°18' W 090°55'0 0.1
2017-Jun-26 10:00N 32°18' W 090°55'0 0.1
2017-Jun-26 09:30N 32°18' W 090°55'0 0.0
2017-Jun-26 09:01N 32°18' W 090°55'1 1.6
2017-Jun-26 08:30N 32°19' W 090°54'2 4.9
2017-Jun-26 08:01N 32°21' W 090°53'2 3.6
2017-Jun-26 07:30N 32°23' W 090°52'0 0.4
2017-Jun-26 07:00N 32°23' W 090°53'1 1.1
2017-Jun-26 06:31N 32°22' W 090°53'0 0.0
2017-Jun-26 06:01N 32°22' W 090°53'0 0.7
2017-Jun-26 05:30N 32°22' W 090°53'2 3.0
2017-Jun-26 05:00N 32°23' W 090°54'1 1.4
2017-Jun-26 04:31N 32°23' W 090°53'0 0.0
2017-Jun-26 04:00N 32°23' W 090°53'0 0.0
2017-Jun-26 03:30N 32°23' W 090°53'0 0.0
2017-Jun-26 03:01N 32°23' W 090°53'0 0.0
2017-Jun-26 02:31N 32°23' W 090°53'0 0.0
2017-Jun-26 02:00N 32°23' W 090°53'0 0.0
2017-Jun-26 01:30N 32°23' W 090°53'1 2.1
2017-Jun-26 01:00N 32°22' W 090°53'2 4.6
2017-Jun-26 00:30N 32°24' W 090°55'2 4.1
2017-Jun-26 00:01N 32°22' W 090°53'2 4.2
2017-Jun-25 23:30N 32°20' W 090°54'1 1.4
2017-Jun-25 23:00N 32°20' W 090°54'0 0.0
2017-Jun-25 22:30N 32°20' W 090°54'1 2.0
2017-Jun-25 22:00N 32°21' W 090°54'3 5.2
2017-Jun-25 21:30N 32°23' W 090°53'0 0.2
2017-Jun-25 21:01N 32°23' W 090°53'0 0.0
2017-Jun-25 20:30N 32°23' W 090°53'0 0.2
2017-Jun-25 20:00N 32°23' W 090°53'0 0.0
2017-Jun-25 19:31N 32°23' W 090°53'0 0.0
2017-Jun-25 19:00N 32°23' W 090°53'0 0.0
2017-Jun-25 18:30N 32°23' W 090°53'0 0.1
2017-Jun-25 18:00N 32°23' W 090°53'1 1.9
2017-Jun-25 17:30N 32°23' W 090°52'2 3.4
2017-Jun-25 17:00N 32°21' W 090°53'3 5.6
2017-Jun-25 16:30N 32°19' W 090°55'1 1.4
2017-Jun-25 16:00N 32°18' W 090°55'3 5.7
2017-Jun-25 15:30N 32°20' W 090°54'2 3.9
2017-Jun-25 15:01N 32°22' W 090°53'2 3.3
2017-Jun-25 14:31N 32°23' W 090°55'1 0.9
2017-Jun-25 13:31N 32°23' W 090°54'1 1.7
2017-Jun-25 13:01N 32°23' W 090°53'2 3.6
2017-Jun-25 12:30N 32°21' W 090°53'2 3.3
2017-Jun-25 12:00N 32°20' W 090°54'0 0.0
2017-Jun-25 11:30N 32°20' W 090°54'0 0.0
2017-Jun-25 11:01N 32°20' W 090°54'2 3.7
2017-Jun-25 10:30N 32°21' W 090°53'0 0.6
2017-Jun-25 10:01N 32°22' W 090°53'0 0.0
2017-Jun-25 09:31N 32°22' W 090°53'0 0.0
2017-Jun-25 09:01N 32°22' W 090°53'0 0.0
2017-Jun-25 08:30N 32°22' W 090°53'0 0.0
2017-Jun-25 08:01N 32°22' W 090°53'0 0.0
2017-Jun-25 07:31N 32°22' W 090°53'0 0.0
2017-Jun-25 07:01N 32°22' W 090°53'0 0.0
2017-Jun-25 06:30N 32°22' W 090°53'0 0.2
2017-Jun-25 06:00N 32°21' W 090°53'3 5.3
2017-Jun-25 05:31N 32°19' W 090°54'1 2.1
2017-Jun-25 05:00N 32°18' W 090°55'0 0.2
2017-Jun-25 04:31N 32°18' W 090°55'4 7.7
2017-Jun-25 04:00N 32°22' W 090°53'2 3.1
2017-Jun-25 03:31N 32°23' W 090°53'0 0.0
2017-Jun-25 03:00N 32°23' W 090°53'0 0.0
2017-Jun-25 02:30N 32°23' W 090°53'0 0.0
2017-Jun-25 02:00N 32°23' W 090°53'0 0.1
2017-Jun-25 01:31N 32°23' W 090°53'2 4.1
2017-Jun-25 01:00N 32°21' W 090°53'2 3.2
2017-Jun-25 00:30N 32°20' W 090°54'2 3.6
2017-Jun-25 00:01N 32°18' W 090°55'2 3.2
2017-Jun-24 23:31N 32°19' W 090°54'3 6.2
2017-Jun-24 23:01N 32°22' W 090°54'1 1.7
2017-Jun-24 22:30N 32°23' W 090°54'1 2.9
2017-Jun-24 22:00N 32°23' W 090°53'1 2.2
2017-Jun-24 21:31N 32°23' W 090°54'1 1.3
2017-Jun-24 21:00N 32°23' W 090°53'1 2.1
2017-Jun-24 20:30N 32°22' W 090°53'1 2.1
2017-Jun-24 20:00N 32°23' W 090°53'0 0.0
2017-Jun-24 19:31N 32°23' W 090°53'0 0.0
2017-Jun-24 19:00N 32°23' W 090°53'0 0.0
2017-Jun-24 18:31N 32°23' W 090°53'0 0.0
2017-Jun-24 18:00N 32°23' W 090°53'0 0.0
2017-Jun-24 17:31N 32°23' W 090°53'0 0.0
2017-Jun-24 17:00N 32°23' W 090°53'0 0.0
2017-Jun-24 16:30N 32°23' W 090°53'0 0.0
2017-Jun-24 16:00N 32°23' W 090°53'0 0.0
2017-Jun-24 15:30N 32°23' W 090°53'0 0.0
2017-Jun-24 15:00N 32°23' W 090°53'0 0.0
2017-Jun-24 14:01N 32°23' W 090°53'1 1.8
2017-Jun-24 13:30N 32°23' W 090°54'0 0.1
2017-Jun-24 13:01N 32°23' W 090°54'2 3.4
2017-Jun-24 12:30N 32°21' W 090°53'2 4.0
2017-Jun-24 12:01N 32°20' W 090°54'0 0.0
2017-Jun-24 11:30N 32°20' W 090°54'0 0.0
2017-Jun-24 11:00N 32°20' W 090°54'1 2.7
2017-Jun-24 10:31N 32°21' W 090°53'2 4.7
2017-Jun-24 10:00N 32°23' W 090°53'0 0.0
2017-Jun-24 09:31N 32°23' W 090°53'0 0.0
2017-Jun-24 09:01N 32°23' W 090°53'0 0.0
2017-Jun-24 08:30N 32°23' W 090°53'0 0.0
2017-Jun-24 08:00N 32°23' W 090°53'0 0.8
2017-Jun-24 07:30N 32°23' W 090°53'1 2.8
2017-Jun-24 07:01N 32°22' W 090°53'2 3.2
2017-Jun-24 06:30N 32°20' W 090°54'3 6.9
2017-Jun-24 06:00N 32°21' W 090°58'0 0.0
2017-Jun-24 05:30N 32°21' W 090°58'1 1.7
2017-Jun-24 05:00N 32°21' W 090°57'2 4.4
2017-Jun-24 04:30N 32°20' W 090°54'1 1.9
2017-Jun-24 04:00N 32°20' W 090°54'2 4.0
2017-Jun-24 03:31N 32°18' W 090°55'0 0.0
2017-Jun-24 03:01N 32°18' W 090°55'0 0.0
2017-Jun-24 02:31N 32°18' W 090°55'0 0.0
2017-Jun-24 02:01N 32°18' W 090°55'1 2.9
2017-Jun-24 01:31N 32°19' W 090°54'4 8.1
2017-Jun-24 01:00N 32°23' W 090°53'1 1.8
2017-Jun-24 00:31N 32°23' W 090°54'1 2.3
2017-Jun-24 00:00N 32°22' W 090°53'1 2.2
2017-Jun-23 23:30N 32°21' W 090°53'2 3.6
2017-Jun-23 23:01N 32°20' W 090°54'0 0.0
2017-Jun-23 22:31N 32°20' W 090°54'0 0.0
2017-Jun-23 15:28N 32°20' W 090°54'0 0.0
2017-Jun-23 14:54N 32°20' W 090°54'2 2.4
2017-Jun-23 14:00N 32°22' W 090°53'3 5.1
2017-Jun-23 13:30N 32°24' W 090°55'2 4.6
2017-Jun-23 13:00N 32°22' W 090°53'1 3.0
2017-Jun-23 12:30N 32°23' W 090°54'1 3.0
2017-Jun-23 12:00N 32°22' W 090°53'0 1.0
2017-Jun-23 11:30N 32°22' W 090°53'2 4.9
2017-Jun-23 11:00N 32°20' W 090°54'0 0.0
2017-Jun-23 10:30N 32°20' W 090°54'1 2.6
2017-Jun-23 10:00N 32°19' W 090°55'1 1.0
2017-Jun-23 09:30N 32°18' W 090°55'0 0.2
2017-Jun-23 09:00N 32°18' W 090°55'4 7.5
2017-Jun-23 08:30N 32°22' W 090°53'0 0.1
2017-Jun-23 08:00N 32°22' W 090°53'0 0.0
2017-Jun-23 07:30N 32°22' W 090°53'0 0.0
2017-Jun-23 07:00N 32°22' W 090°53'0 0.0
2017-Jun-23 06:30N 32°22' W 090°53'0 0.0
2017-Jun-23 06:00N 32°22' W 090°53'0 0.0
2017-Jun-23 05:30N 32°22' W 090°53'0 0.0
2017-Jun-23 05:00N 32°22' W 090°53'0 0.0
2017-Jun-23 04:30N 32°22' W 090°53'0 0.0
2017-Jun-23 04:00N 32°22' W 090°53'0 0.0
2017-Jun-23 03:30N 32°22' W 090°53'0 0.0
2017-Jun-23 03:00N 32°22' W 090°53'0 0.0
2017-Jun-23 02:30N 32°22' W 090°53'1 2.2
2017-Jun-23 02:00N 32°23' W 090°54'2 3.2
2017-Jun-23 01:30N 32°24' W 090°55'2 4.6
2017-Jun-23 01:00N 32°22' W 090°53'3 5.5
2017-Jun-23 00:30N 32°20' W 090°54'2 4.6
2017-Jun-23 00:00N 32°18' W 090°56'3 5.0
2017-Jun-22 23:30N 32°16' W 090°58'1 1.3
2017-Jun-22 23:00N 32°17' W 090°57'4 8.4
2017-Jun-22 22:30N 32°20' W 090°54'0 0.9
2017-Jun-22 22:00N 32°20' W 090°54'2 4.9
2017-Jun-22 21:30N 32°22' W 090°53'1 1.7
2017-Jun-22 21:00N 32°22' W 090°53'0 0.0
2017-Jun-22 20:30N 32°22' W 090°53'0 0.0
2017-Jun-22 20:00N 32°22' W 090°53'0 0.4
2017-Jun-22 19:30N 32°22' W 090°53'1 1.8
2017-Jun-22 19:00N 32°22' W 090°53'0 0.0
2017-Jun-22 18:30N 32°22' W 090°53'0 0.0
2017-Jun-22 18:00N 32°22' W 090°53'0 0.1
2017-Jun-22 17:30N 32°23' W 090°53'0 0.1
2017-Jun-22 17:00N 32°22' W 090°53'0 0.9
2017-Jun-22 16:30N 32°22' W 090°53'1 1.6
2017-Jun-22 16:00N 32°23' W 090°53'2 3.0
2017-Jun-22 15:30N 32°22' W 090°53'2 3.2
2017-Jun-22 15:00N 32°23' W 090°53'0 0.0
2017-Jun-22 14:30N 32°23' W 090°53'0 0.0
2017-Jun-22 13:30N 32°23' W 090°53'1 1.5
2017-Jun-22 13:00N 32°22' W 090°53'0 0.6
2017-Jun-22 12:30N 32°22' W 090°53'1 1.3
2017-Jun-22 12:00N 32°22' W 090°53'0 0.4
2017-Jun-22 11:30N 32°21' W 090°53'2 4.0
2017-Jun-22 11:00N 32°20' W 090°54'0 0.0
2017-Jun-22 10:30N 32°20' W 090°54'3 5.5
2017-Jun-22 10:00N 32°22' W 090°53'1 1.3
2017-Jun-22 09:30N 32°22' W 090°53'0 0.0
2017-Jun-22 09:00N 32°22' W 090°53'0 0.0
2017-Jun-22 08:30N 32°22' W 090°53'0 0.0
2017-Jun-22 08:00N 32°22' W 090°53'0 0.0
2017-Jun-22 07:30N 32°22' W 090°53'0 0.0
2017-Jun-22 07:00N 32°22' W 090°53'0 0.0
2017-Jun-22 06:30N 32°22' W 090°53'0 0.0
2017-Jun-22 06:00N 32°22' W 090°53'0 0.0
2017-Jun-22 05:30N 32°22' W 090°53'2 3.8
2017-Jun-22 05:00N 32°21' W 090°54'3 5.1
2017-Jun-22 04:30N 32°18' W 090°55'0 0.7
2017-Jun-22 04:00N 32°18' W 090°55'2 3.6
2017-Jun-22 03:30N 32°20' W 090°54'2 4.8
2017-Jun-22 03:00N 32°22' W 090°53'3 5.2
2017-Jun-22 02:30N 32°24' W 090°55'0 0.0
2017-Jun-22 02:00N 32°24' W 090°55'0 0.6
2017-Jun-22 01:30N 32°23' W 090°55'1 1.6
2017-Jun-22 01:00N 32°23' W 090°54'1 1.7
2017-Jun-22 00:30N 32°23' W 090°53'0 0.1
2017-Jun-22 00:00N 32°23' W 090°53'2 4.1
2017-Jun-21 23:30N 32°21' W 090°53'2 3.4
2017-Jun-21 23:00N 32°20' W 090°54'0 0.0
2017-Jun-21 22:30N 32°20' W 090°54'2 3.7
2017-Jun-21 22:00N 32°21' W 090°53'2 3.1
2017-Jun-21 21:30N 32°23' W 090°53'1 1.3
2017-Jun-21 21:00N 32°23' W 090°53'0 0.0
2017-Jun-21 20:30N 32°23' W 090°53'0 0.0
2017-Jun-21 20:00N 32°23' W 090°53'0 0.4
2017-Jun-21 19:30N 32°23' W 090°53'1 2.1
2017-Jun-21 19:00N 32°22' W 090°53'1 1.3
2017-Jun-21 18:30N 32°22' W 090°53'2 3.6
2017-Jun-21 18:00N 32°23' W 090°54'0 0.3
2017-Jun-21 17:30N 32°23' W 090°54'1 2.9
2017-Jun-21 17:00N 32°22' W 090°53'0 0.8
2017-Jun-21 16:30N 32°22' W 090°53'0 0.0
2017-Jun-21 16:00N 32°22' W 090°53'0 1.0
2017-Jun-21 15:30N 32°22' W 090°53'1 2.6
2017-Jun-21 15:00N 32°23' W 090°54'1 1.1
2017-Jun-21 14:00N 32°22' W 090°53'0 0.0
2017-Jun-21 13:30N 32°22' W 090°53'0 0.3
2017-Jun-21 13:00N 32°22' W 090°53'0 0.0
2017-Jun-21 12:30N 32°22' W 090°53'2 4.0
2017-Jun-21 12:00N 32°20' W 090°54'1 1.8
2017-Jun-21 11:30N 32°20' W 090°54'0 0.0
2017-Jun-21 11:00N 32°20' W 090°54'0 0.0
2017-Jun-21 10:30N 32°20' W 090°54'3 5.9
2017-Jun-21 10:00N 32°22' W 090°53'1 2.1
2017-Jun-21 09:30N 32°23' W 090°53'0 0.0
2017-Jun-21 09:00N 32°23' W 090°53'0 0.0
2017-Jun-21 08:30N 32°23' W 090°53'0 0.0
2017-Jun-21 08:00N 32°23' W 090°53'0 0.0
2017-Jun-21 07:30N 32°23' W 090°53'2 3.3
2017-Jun-21 07:00N 32°22' W 090°53'1 1.8
2017-Jun-21 06:30N 32°21' W 090°53'0 0.0
2017-Jun-21 06:00N 32°21' W 090°53'0 0.0
2017-Jun-21 05:30N 32°21' W 090°53'0 0.0
2017-Jun-21 05:00N 32°21' W 090°53'0 0.0
2017-Jun-21 04:30N 32°21' W 090°53'0 0.0
2017-Jun-21 04:00N 32°21' W 090°53'0 0.0
2017-Jun-21 03:30N 32°21' W 090°53'0 0.0
2017-Jun-21 03:00N 32°21' W 090°53'0 0.8
2017-Jun-21 02:30N 32°21' W 090°53'2 3.5
2017-Jun-21 02:00N 32°23' W 090°53'1 2.2
2017-Jun-21 01:30N 32°23' W 090°54'0 0.3
2017-Jun-21 01:00N 32°23' W 090°54'2 3.2
2017-Jun-21 00:30N 32°22' W 090°53'3 5.2
2017-Jun-21 00:00N 32°20' W 090°54'2 4.2
2017-Jun-20 23:30N 32°22' W 090°53'0 0.0
2017-Jun-20 23:00N 32°22' W 090°53'1 2.9
2017-Jun-20 22:30N 32°23' W 090°53'1 1.8
2017-Jun-20 22:00N 32°23' W 090°54'1 1.7
2017-Jun-20 21:30N 32°23' W 090°53'0 0.6
2017-Jun-20 21:00N 32°23' W 090°53'0 0.0
2017-Jun-20 20:30N 32°23' W 090°53'0 0.0
2017-Jun-20 20:00N 32°23' W 090°53'1 1.2
2017-Jun-20 19:30N 32°23' W 090°53'2 3.1
2017-Jun-20 19:00N 32°21' W 090°53'1 2.7
2017-Jun-20 18:30N 32°20' W 090°54'3 5.4
2017-Jun-20 18:00N 32°21' W 090°57'0 0.2
2017-Jun-20 17:30N 32°21' W 090°57'0 0.2
2017-Jun-20 17:00N 32°21' W 090°57'0 0.8
2017-Jun-20 16:30N 32°21' W 090°56'2 4.6
2017-Jun-20 16:00N 32°20' W 090°54'2 4.5
2017-Jun-20 15:30N 32°22' W 090°53'1 1.3
2017-Jun-20 15:00N 32°23' W 090°54'1 1.0
2017-Jun-20 14:00N 32°23' W 090°55'1 1.1
2017-Jun-20 13:31N 32°24' W 090°55'1 2.1
2017-Jun-20 13:00N 32°23' W 090°54'1 2.0
2017-Jun-20 12:30N 32°22' W 090°53'2 3.7
2017-Jun-20 12:00N 32°21' W 090°54'1 2.0
2017-Jun-20 11:30N 32°20' W 090°54'0 0.0
2017-Jun-20 11:00N 32°20' W 090°54'0 0.0
2017-Jun-20 10:30N 32°20' W 090°54'3 5.7
2017-Jun-20 10:00N 32°22' W 090°53'0 0.0
2017-Jun-20 09:30N 32°22' W 090°53'0 0.0
2017-Jun-20 09:00N 32°22' W 090°53'0 0.0
2017-Jun-20 08:30N 32°22' W 090°53'0 0.0
2017-Jun-20 08:00N 32°22' W 090°53'0 0.1
2017-Jun-20 07:30N 32°22' W 090°53'0 0.0
2017-Jun-20 07:00N 32°22' W 090°53'0 0.0
2017-Jun-20 06:30N 32°22' W 090°53'0 0.1
2017-Jun-20 06:00N 32°22' W 090°53'0 0.1
2017-Jun-20 05:30N 32°22' W 090°53'1 1.8
2017-Jun-20 05:00N 32°22' W 090°53'1 1.5
2017-Jun-20 04:30N 32°22' W 090°53'0 0.5
2017-Jun-20 04:00N 32°22' W 090°53'1 2.9
2017-Jun-20 03:30N 32°23' W 090°54'1 1.0
2017-Jun-20 03:00N 32°23' W 090°53'0 0.2
2017-Jun-20 02:30N 32°23' W 090°53'1 1.3
2017-Jun-20 02:00N 32°23' W 090°53'0 0.5
2017-Jun-20 01:30N 32°22' W 090°53'1 1.2
2017-Jun-20 01:00N 32°23' W 090°54'1 1.6
2017-Jun-20 00:30N 32°23' W 090°55'1 2.1
2017-Jun-20 00:00N 32°23' W 090°54'2 3.9
2017-Jun-19 23:30N 32°21' W 090°54'1 2.1
2017-Jun-19 23:00N 32°20' W 090°54'0 0.0
2017-Jun-19 22:30N 32°20' W 090°54'3 5.4
2017-Jun-19 22:00N 32°22' W 090°53'1 2.6
2017-Jun-19 21:30N 32°23' W 090°53'0 0.0
2017-Jun-19 21:00N 32°23' W 090°53'0 0.0
2017-Jun-19 20:30N 32°23' W 090°53'0 0.0
2017-Jun-19 20:00N 32°23' W 090°53'0 0.1
2017-Jun-19 19:30N 32°23' W 090°53'1 1.4
2017-Jun-19 19:00N 32°23' W 090°53'1 1.4
2017-Jun-19 18:30N 32°23' W 090°54'0 0.9
2017-Jun-19 18:00N 32°23' W 090°53'1 1.5
2017-Jun-19 17:30N 32°22' W 090°53'1 1.4
2017-Jun-19 17:00N 32°23' W 090°53'0 0.7
2017-Jun-19 16:30N 32°23' W 090°54'2 3.5
2017-Jun-19 16:00N 32°22' W 090°53'3 5.1
2017-Jun-19 15:30N 32°19' W 090°54'1 2.7
2017-Jun-19 15:00N 32°18' W 090°55'0 0.1
2017-Jun-19 14:00N 32°18' W 090°55'3 5.8
2017-Jun-19 13:30N 32°21' W 090°54'1 2.2
2017-Jun-19 13:00N 32°22' W 090°53'0 0.1
2017-Jun-19 12:30N 32°22' W 090°53'0 1.0
2017-Jun-19 12:00N 32°21' W 090°53'2 3.2
2017-Jun-19 11:30N 32°20' W 090°54'0 0.0
2017-Jun-19 11:00N 32°20' W 090°54'0 0.0
2017-Jun-19 10:30N 32°20' W 090°54'2 4.3
2017-Jun-19 10:00N 32°22' W 090°53'0 0.0
2017-Jun-19 09:30N 32°22' W 090°53'0 0.0
2017-Jun-19 09:00N 32°22' W 090°53'0 0.0
2017-Jun-19 08:30N 32°22' W 090°53'0 0.0
2017-Jun-19 08:00N 32°22' W 090°53'1 2.0
2017-Jun-19 07:30N 32°22' W 090°53'1 2.3
2017-Jun-19 07:00N 32°23' W 090°55'1 2.0
2017-Jun-19 06:30N 32°23' W 090°54'1 2.0
2017-Jun-19 06:00N 32°23' W 090°52'1 1.8
2017-Jun-19 05:30N 32°23' W 090°53'0 0.0
2017-Jun-19 05:00N 32°23' W 090°53'0 0.0
2017-Jun-19 04:30N 32°23' W 090°53'0 0.0
2017-Jun-19 04:00N 32°23' W 090°53'1 1.7
2017-Jun-19 03:30N 32°22' W 090°53'0 0.0
2017-Jun-19 03:00N 32°22' W 090°53'0 0.0
2017-Jun-19 02:30N 32°22' W 090°53'0 0.0
2017-Jun-19 02:00N 32°22' W 090°53'0 0.1
2017-Jun-19 01:30N 32°22' W 090°53'0 0.6
2017-Jun-19 01:00N 32°22' W 090°53'1 1.5
2017-Jun-19 00:30N 32°23' W 090°53'2 4.9
2017-Jun-19 00:00N 32°21' W 090°54'1 2.1
2017-Jun-18 23:30N 32°20' W 090°54'0 0.8
2017-Jun-18 23:00N 32°20' W 090°54'3 6.3
2017-Jun-18 22:30N 32°23' W 090°53'0 1.0
2017-Jun-18 22:00N 32°23' W 090°53'0 0.3
2017-Jun-18 21:30N 32°23' W 090°53'1 1.9
2017-Jun-18 21:00N 32°22' W 090°53'2 3.1
2017-Jun-18 20:30N 32°20' W 090°54'0 0.0
2017-Jun-18 20:00N 32°20' W 090°54'1 1.4
2017-Jun-18 19:30N 32°21' W 090°53'2 4.3
2017-Jun-18 19:00N 32°23' W 090°53'0 0.0
2017-Jun-18 18:30N 32°23' W 090°53'0 0.0
2017-Jun-18 18:00N 32°23' W 090°53'0 0.0
2017-Jun-18 17:30N 32°23' W 090°53'0 0.0
2017-Jun-18 17:00N 32°23' W 090°53'0 0.0
2017-Jun-18 16:30N 32°23' W 090°53'0 0.0
2017-Jun-18 16:00N 32°23' W 090°53'0 0.0
2017-Jun-18 15:30N 32°23' W 090°53'0 0.0
2017-Jun-18 15:00N 32°23' W 090°53'0 0.0
2017-Jun-18 14:00N 32°23' W 090°53'0 0.0
2017-Jun-18 13:30N 32°23' W 090°53'1 1.5
2017-Jun-18 13:00N 32°22' W 090°53'2 3.1
2017-Jun-18 12:30N 32°21' W 090°53'1 2.8
2017-Jun-18 12:00N 32°20' W 090°54'0 0.0
2017-Jun-18 11:30N 32°20' W 090°54'0 0.0
2017-Jun-18 11:00N 32°20' W 090°54'0 0.0
2017-Jun-18 10:30N 32°20' W 090°54'0 0.0
2017-Jun-18 10:00N 32°20' W 090°54'3 5.6
2017-Jun-18 09:30N 32°22' W 090°53'1 1.9
2017-Jun-18 09:00N 32°23' W 090°53'  

Dump ship's entire track history